<?xml version="1.0" encoding="UTF-8" standalone="no" ?>
<gpx xmlns="http://www.topografix.com/GPX/1/1" xmlns:xsi="http://www.w3.org/2001/XMLSchema-instance" xsi:schemaLocation="http://www.topografix.com/GPX/1/1 http://www.topografix.com/GPX/1/1/gpx.xsd" version="1.1" creator="VisuGPX - https://www.visugpx.com">
  <metadata>
    <name>Le Fau La Piche 1ere partie</name>
    <desc><![CDATA[recherche du passage pour rejoindre le Chateau en passant par la Piche. 1ère partie, cette trace, suit le sentier présent sur la carte IGN actuelle.
Pour le reste, à découvrir à travers la foret en s?appuyant sur d'anciennes cartes TOP25 qui indiquais encore l'itinéraires, et des sentiers en pointillés sur cette zone!]]></desc>
  </metadata>
  <wpt lat="44.34021" lon="6.4078">
    <ele>1357.9</ele>
    <name><![CDATA[xXWA~dAX--.1.jpg]]></name>
  </wpt>
  <wpt lat="44.3402" lon="6.40863">
    <ele>1365.8</ele>
    <name><![CDATA[xXWA~diU--.1.jpg]]></name>
  </wpt>
  <wpt lat="44.3358" lon="6.4116">
    <ele>1483.2</ele>
    <name><![CDATA[xXWA~g5Y--.1.3gp]]></name>
  </wpt>
  <wpt lat="44.33582" lon="6.41164">
    <ele>1482.6</ele>
    <name><![CDATA[xXWA~g50--.1.jpg]]></name>
  </wpt>
  <wpt lat="44.33593" lon="6.41683">
    <ele>1529.8</ele>
    <name><![CDATA[xXWCVA1o--.1.jpg]]></name>
  </wpt>
  <wpt lat="44.33578" lon="6.41728">
    <ele>1549.3</ele>
    <name><![CDATA[xXWCVA7O--.1.jpg]]></name>
  </wpt>
  <wpt lat="44.33609" lon="6.4211">
    <ele>1599.1</ele>
    <name><![CDATA[xXWCVLi3--.1.jpg]]></name>
  </wpt>
  <wpt lat="44.33639" lon="6.42183">
    <ele>1613.1</ele>
    <name><![CDATA[xXWCVhSv--.1.jpg]]></name>
  </wpt>
  <wpt lat="44.33644" lon="6.42207">
    <ele>1614.9</ele>
    <name><![CDATA[xXWCVhbI--.1.jpg]]></name>
  </wpt>
  <wpt lat="44.33689" lon="6.42855">
    <ele>1659.3</ele>
    <name><![CDATA[xXWCXGGE--.1.mp4]]></name>
  </wpt>
  <wpt lat="44.33584" lon="6.41275">
    <ele>1487.7</ele>
    <name><![CDATA[xXWA~i2A--.1.jpg]]></name>
  </wpt>
  <trk>
    <name><![CDATA[Le Fau La Piche 1ere partie_1]]></name>
    <trkseg>
      <trkpt lat="44.3393" lon="6.40987">
        <ele>1436.976</ele>
        <time>2020-10-05T09:38:01Z</time>
      </trkpt>
      <trkpt lat="44.33926" lon="6.40992">
        <ele>1440.087</ele>
        <time>2020-10-05T09:38:07Z</time>
      </trkpt>
      <trkpt lat="44.33922" lon="6.40998">
        <ele>1438.099</ele>
        <time>2020-10-05T09:38:12Z</time>
      </trkpt>
      <trkpt lat="44.3392" lon="6.41005">
        <ele>1441.821</ele>
        <time>2020-10-05T09:38:18Z</time>
      </trkpt>
      <trkpt lat="44.33915" lon="6.41008">
        <ele>1441.891</ele>
        <time>2020-10-05T09:38:24Z</time>
      </trkpt>
      <trkpt lat="44.33912" lon="6.41009">
        <ele>1444.367</ele>
        <time>2020-10-05T09:38:29Z</time>
      </trkpt>
      <trkpt lat="44.33909" lon="6.41009">
        <ele>1445.606</ele>
        <time>2020-10-05T09:38:34Z</time>
      </trkpt>
      <trkpt lat="44.33903" lon="6.41009">
        <ele>1445.437</ele>
        <time>2020-10-05T09:38:40Z</time>
      </trkpt>
      <trkpt lat="44.33898" lon="6.41007">
        <ele>1443.355</ele>
        <time>2020-10-05T09:38:45Z</time>
      </trkpt>
      <trkpt lat="44.33891" lon="6.41001">
        <ele>1444.158</ele>
        <time>2020-10-05T09:38:51Z</time>
      </trkpt>
      <trkpt lat="44.33886" lon="6.40997">
        <ele>1445.248</ele>
        <time>2020-10-05T09:38:57Z</time>
      </trkpt>
      <trkpt lat="44.33881" lon="6.40994">
        <ele>1446.843</ele>
        <time>2020-10-05T09:39:02Z</time>
      </trkpt>
      <trkpt lat="44.33877" lon="6.40991">
        <ele>1446.218</ele>
        <time>2020-10-05T09:39:08Z</time>
      </trkpt>
      <trkpt lat="44.33876" lon="6.40988">
        <ele>1448.148</ele>
        <time>2020-10-05T09:39:13Z</time>
      </trkpt>
      <trkpt lat="44.3387" lon="6.40986">
        <ele>1452.258</ele>
        <time>2020-10-05T09:39:19Z</time>
      </trkpt>
      <trkpt lat="44.33866" lon="6.40983">
        <ele>1452.337</ele>
        <time>2020-10-05T09:39:25Z</time>
      </trkpt>
      <trkpt lat="44.33861" lon="6.4098">
        <ele>1451.056</ele>
        <time>2020-10-05T09:39:31Z</time>
      </trkpt>
      <trkpt lat="44.33859" lon="6.40975">
        <ele>1452.672</ele>
        <time>2020-10-05T09:39:37Z</time>
      </trkpt>
      <trkpt lat="44.33855" lon="6.40972">
        <ele>1451.939</ele>
        <time>2020-10-05T09:39:42Z</time>
      </trkpt>
      <trkpt lat="44.3385" lon="6.40971">
        <ele>1456.345</ele>
        <time>2020-10-05T09:39:48Z</time>
      </trkpt>
      <trkpt lat="44.33846" lon="6.4097">
        <ele>1458.371</ele>
        <time>2020-10-05T09:39:54Z</time>
      </trkpt>
      <trkpt lat="44.33843" lon="6.40973">
        <ele>1462.11</ele>
        <time>2020-10-05T09:39:59Z</time>
      </trkpt>
      <trkpt lat="44.33839" lon="6.40975">
        <ele>1465.765</ele>
        <time>2020-10-05T09:40:05Z</time>
      </trkpt>
      <trkpt lat="44.33835" lon="6.40977">
        <ele>1464.126</ele>
        <time>2020-10-05T09:40:11Z</time>
      </trkpt>
      <trkpt lat="44.33832" lon="6.40978">
        <ele>1464.88</ele>
        <time>2020-10-05T09:40:16Z</time>
      </trkpt>
      <trkpt lat="44.33829" lon="6.4098">
        <ele>1462.379</ele>
        <time>2020-10-05T09:40:21Z</time>
      </trkpt>
      <trkpt lat="44.33826" lon="6.4098">
        <ele>1462.177</ele>
        <time>2020-10-05T09:40:27Z</time>
      </trkpt>
      <trkpt lat="44.33822" lon="6.40981">
        <ele>1460.927</ele>
        <time>2020-10-05T09:40:33Z</time>
      </trkpt>
      <trkpt lat="44.33818" lon="6.40981">
        <ele>1466.83</ele>
        <time>2020-10-05T09:40:38Z</time>
      </trkpt>
      <trkpt lat="44.33813" lon="6.40982">
        <ele>1465.932</ele>
        <time>2020-10-05T09:40:44Z</time>
      </trkpt>
      <trkpt lat="44.3381" lon="6.40982">
        <ele>1467.32</ele>
        <time>2020-10-05T09:40:49Z</time>
      </trkpt>
      <trkpt lat="44.33805" lon="6.40985">
        <ele>1467.684</ele>
        <time>2020-10-05T09:40:55Z</time>
      </trkpt>
      <trkpt lat="44.338" lon="6.40987">
        <ele>1470.626</ele>
        <time>2020-10-05T09:41:01Z</time>
      </trkpt>
      <trkpt lat="44.33796" lon="6.4099">
        <ele>1472.547</ele>
        <time>2020-10-05T09:41:07Z</time>
      </trkpt>
      <trkpt lat="44.33792" lon="6.40996">
        <ele>1476.453</ele>
        <time>2020-10-05T09:41:13Z</time>
      </trkpt>
      <trkpt lat="44.33787" lon="6.40995">
        <ele>1478.258</ele>
        <time>2020-10-05T09:41:19Z</time>
      </trkpt>
      <trkpt lat="44.33783" lon="6.40995">
        <ele>1478.26</ele>
        <time>2020-10-05T09:41:25Z</time>
      </trkpt>
      <trkpt lat="44.33778" lon="6.40997">
        <ele>1481.847</ele>
        <time>2020-10-05T09:41:30Z</time>
      </trkpt>
      <trkpt lat="44.33771" lon="6.41001">
        <ele>1482.094</ele>
        <time>2020-10-05T09:41:36Z</time>
      </trkpt>
      <trkpt lat="44.33768" lon="6.41002">
        <ele>1483.727</ele>
        <time>2020-10-05T09:41:42Z</time>
      </trkpt>
      <trkpt lat="44.33765" lon="6.41004">
        <ele>1484.539</ele>
        <time>2020-10-05T09:41:47Z</time>
      </trkpt>
      <trkpt lat="44.33763" lon="6.41004">
        <ele>1486.25</ele>
        <time>2020-10-05T09:41:53Z</time>
      </trkpt>
      <trkpt lat="44.33758" lon="6.41008">
        <ele>1487.652</ele>
        <time>2020-10-05T09:41:59Z</time>
      </trkpt>
      <trkpt lat="44.33753" lon="6.41012">
        <ele>1488.346</ele>
        <time>2020-10-05T09:42:04Z</time>
      </trkpt>
      <trkpt lat="44.33749" lon="6.41016">
        <ele>1490.466</ele>
        <time>2020-10-05T09:42:10Z</time>
      </trkpt>
      <trkpt lat="44.33744" lon="6.41016">
        <ele>1490.918</ele>
        <time>2020-10-05T09:42:16Z</time>
      </trkpt>
      <trkpt lat="44.33739" lon="6.41017">
        <ele>1490.18</ele>
        <time>2020-10-05T09:42:22Z</time>
      </trkpt>
      <trkpt lat="44.33733" lon="6.41019">
        <ele>1490.856</ele>
        <time>2020-10-05T09:42:28Z</time>
      </trkpt>
      <trkpt lat="44.33728" lon="6.41025">
        <ele>1493.3</ele>
        <time>2020-10-05T09:42:34Z</time>
      </trkpt>
      <trkpt lat="44.33722" lon="6.41027">
        <ele>1491.619</ele>
        <time>2020-10-05T09:42:40Z</time>
      </trkpt>
      <trkpt lat="44.33718" lon="6.41028">
        <ele>1492.424</ele>
        <time>2020-10-05T09:42:46Z</time>
      </trkpt>
      <trkpt lat="44.33713" lon="6.4103">
        <ele>1492.004</ele>
        <time>2020-10-05T09:42:52Z</time>
      </trkpt>
      <trkpt lat="44.33707" lon="6.41033">
        <ele>1493.602</ele>
        <time>2020-10-05T09:42:57Z</time>
      </trkpt>
      <trkpt lat="44.33702" lon="6.41033">
        <ele>1494.11</ele>
        <time>2020-10-05T09:43:03Z</time>
      </trkpt>
      <trkpt lat="44.33699" lon="6.41032">
        <ele>1498.229</ele>
        <time>2020-10-05T09:43:09Z</time>
      </trkpt>
      <trkpt lat="44.33695" lon="6.41031">
        <ele>1498.721</ele>
        <time>2020-10-05T09:43:14Z</time>
      </trkpt>
      <trkpt lat="44.33691" lon="6.41032">
        <ele>1497.518</ele>
        <time>2020-10-05T09:43:19Z</time>
      </trkpt>
      <trkpt lat="44.33689" lon="6.41032">
        <ele>1500.344</ele>
        <time>2020-10-05T09:43:24Z</time>
      </trkpt>
      <trkpt lat="44.33685" lon="6.41035">
        <ele>1501.724</ele>
        <time>2020-10-05T09:43:30Z</time>
      </trkpt>
      <trkpt lat="44.33679" lon="6.41037">
        <ele>1505.131</ele>
        <time>2020-10-05T09:43:36Z</time>
      </trkpt>
      <trkpt lat="44.33677" lon="6.41039">
        <ele>1503.496</ele>
        <time>2020-10-05T09:43:41Z</time>
      </trkpt>
      <trkpt lat="44.33674" lon="6.4104">
        <ele>1506.554</ele>
        <time>2020-10-05T09:43:47Z</time>
      </trkpt>
      <trkpt lat="44.33669" lon="6.41043">
        <ele>1505.992</ele>
        <time>2020-10-05T09:43:52Z</time>
      </trkpt>
      <trkpt lat="44.33662" lon="6.41043">
        <ele>1505.213</ele>
        <time>2020-10-05T09:43:58Z</time>
      </trkpt>
      <trkpt lat="44.33658" lon="6.41046">
        <ele>1506.392</ele>
        <time>2020-10-05T09:44:03Z</time>
      </trkpt>
      <trkpt lat="44.33658" lon="6.41046">
        <ele>1506.494</ele>
        <time>2020-10-05T09:44:09Z</time>
      </trkpt>
      <trkpt lat="44.33658" lon="6.41047">
        <ele>1506.12</ele>
        <time>2020-10-05T09:44:15Z</time>
      </trkpt>
      <trkpt lat="44.33659" lon="6.41047">
        <ele>1505.883</ele>
        <time>2020-10-05T09:44:21Z</time>
      </trkpt>
      <trkpt lat="44.33659" lon="6.41047">
        <ele>1505.898</ele>
        <time>2020-10-05T09:44:27Z</time>
      </trkpt>
      <trkpt lat="44.33659" lon="6.41047">
        <ele>1505.905</ele>
        <time>2020-10-05T09:44:32Z</time>
      </trkpt>
      <trkpt lat="44.33659" lon="6.41047">
        <ele>1505.912</ele>
        <time>2020-10-05T09:44:38Z</time>
      </trkpt>
      <trkpt lat="44.3366" lon="6.41047">
        <ele>1506.872</ele>
        <time>2020-10-05T09:44:43Z</time>
      </trkpt>
      <trkpt lat="44.33661" lon="6.4105">
        <ele>1509.649</ele>
        <time>2020-10-05T09:44:49Z</time>
      </trkpt>
      <trkpt lat="44.33662" lon="6.41052">
        <ele>1510.728</ele>
        <time>2020-10-05T09:44:55Z</time>
      </trkpt>
      <trkpt lat="44.33662" lon="6.41052">
        <ele>1510.736</ele>
        <time>2020-10-05T09:45:00Z</time>
      </trkpt>
      <trkpt lat="44.33662" lon="6.41052">
        <ele>1510.759</ele>
        <time>2020-10-05T09:45:06Z</time>
      </trkpt>
      <trkpt lat="44.33662" lon="6.41053">
        <ele>1510.879</ele>
        <time>2020-10-05T09:45:11Z</time>
      </trkpt>
      <trkpt lat="44.33662" lon="6.41053">
        <ele>1511.326</ele>
        <time>2020-10-05T09:45:17Z</time>
      </trkpt>
      <trkpt lat="44.33662" lon="6.41053">
        <ele>1511.511</ele>
        <time>2020-10-05T09:45:23Z</time>
      </trkpt>
      <trkpt lat="44.33662" lon="6.41053">
        <ele>1511.598</ele>
        <time>2020-10-05T09:45:29Z</time>
      </trkpt>
      <trkpt lat="44.33662" lon="6.41053">
        <ele>1511.644</ele>
        <time>2020-10-05T09:45:35Z</time>
      </trkpt>
      <trkpt lat="44.33662" lon="6.41053">
        <ele>1511.665</ele>
        <time>2020-10-05T09:45:40Z</time>
      </trkpt>
      <trkpt lat="44.33662" lon="6.41053">
        <ele>1511.759</ele>
        <time>2020-10-05T09:45:46Z</time>
      </trkpt>
      <trkpt lat="44.33662" lon="6.41053">
        <ele>1511.825</ele>
        <time>2020-10-05T09:45:52Z</time>
      </trkpt>
      <trkpt lat="44.33662" lon="6.41053">
        <ele>1511.897</ele>
        <time>2020-10-05T09:45:57Z</time>
      </trkpt>
      <trkpt lat="44.33662" lon="6.41053">
        <ele>1511.968</ele>
        <time>2020-10-05T09:46:03Z</time>
      </trkpt>
      <trkpt lat="44.33662" lon="6.41053">
        <ele>1511.956</ele>
        <time>2020-10-05T09:46:08Z</time>
      </trkpt>
      <trkpt lat="44.33662" lon="6.41053">
        <ele>1511.986</ele>
        <time>2020-10-05T09:46:14Z</time>
      </trkpt>
      <trkpt lat="44.33662" lon="6.41053">
        <ele>1511.982</ele>
        <time>2020-10-05T09:46:19Z</time>
      </trkpt>
      <trkpt lat="44.33662" lon="6.41053">
        <ele>1511.983</ele>
        <time>2020-10-05T09:46:25Z</time>
      </trkpt>
      <trkpt lat="44.33662" lon="6.41053">
        <ele>1512.009</ele>
        <time>2020-10-05T09:46:31Z</time>
      </trkpt>
      <trkpt lat="44.33662" lon="6.41053">
        <ele>1512.075</ele>
        <time>2020-10-05T09:46:37Z</time>
      </trkpt>
      <trkpt lat="44.33662" lon="6.41053">
        <ele>1512.14</ele>
        <time>2020-10-05T09:46:43Z</time>
      </trkpt>
      <trkpt lat="44.33662" lon="6.41053">
        <ele>1512.231</ele>
        <time>2020-10-05T09:46:49Z</time>
      </trkpt>
      <trkpt lat="44.33662" lon="6.41053">
        <ele>1512.316</ele>
        <time>2020-10-05T09:46:54Z</time>
      </trkpt>
      <trkpt lat="44.33662" lon="6.41054">
        <ele>1512.461</ele>
        <time>2020-10-05T09:47:00Z</time>
      </trkpt>
      <trkpt lat="44.33662" lon="6.41054">
        <ele>1512.541</ele>
        <time>2020-10-05T09:47:06Z</time>
      </trkpt>
      <trkpt lat="44.33662" lon="6.41054">
        <ele>1512.594</ele>
        <time>2020-10-05T09:47:11Z</time>
      </trkpt>
      <trkpt lat="44.33662" lon="6.41054">
        <ele>1512.595</ele>
        <time>2020-10-05T09:47:17Z</time>
      </trkpt>
      <trkpt lat="44.33662" lon="6.41054">
        <ele>1512.57</ele>
        <time>2020-10-05T09:47:22Z</time>
      </trkpt>
      <trkpt lat="44.33661" lon="6.41054">
        <ele>1512.554</ele>
        <time>2020-10-05T09:47:27Z</time>
      </trkpt>
      <trkpt lat="44.33661" lon="6.41054">
        <ele>1512.622</ele>
        <time>2020-10-05T09:47:32Z</time>
      </trkpt>
      <trkpt lat="44.33661" lon="6.41054">
        <ele>1512.668</ele>
        <time>2020-10-05T09:47:38Z</time>
      </trkpt>
      <trkpt lat="44.33661" lon="6.41054">
        <ele>1512.785</ele>
        <time>2020-10-05T09:47:44Z</time>
      </trkpt>
      <trkpt lat="44.33661" lon="6.41054">
        <ele>1512.888</ele>
        <time>2020-10-05T09:47:50Z</time>
      </trkpt>
      <trkpt lat="44.33659" lon="6.41056">
        <ele>1510.493</ele>
        <time>2020-10-05T09:47:55Z</time>
      </trkpt>
      <trkpt lat="44.33652" lon="6.41059">
        <ele>1510.36</ele>
        <time>2020-10-05T09:48:01Z</time>
      </trkpt>
      <trkpt lat="44.33646" lon="6.41063">
        <ele>1511.65</ele>
        <time>2020-10-05T09:48:07Z</time>
      </trkpt>
      <trkpt lat="44.33642" lon="6.41068">
        <ele>1513.871</ele>
        <time>2020-10-05T09:48:12Z</time>
      </trkpt>
      <trkpt lat="44.33639" lon="6.41073">
        <ele>1518.866</ele>
        <time>2020-10-05T09:48:18Z</time>
      </trkpt>
      <trkpt lat="44.33635" lon="6.41077">
        <ele>1519.193</ele>
        <time>2020-10-05T09:48:23Z</time>
      </trkpt>
      <trkpt lat="44.3363" lon="6.41083">
        <ele>1519.738</ele>
        <time>2020-10-05T09:48:29Z</time>
      </trkpt>
      <trkpt lat="44.33624" lon="6.41088">
        <ele>1520.394</ele>
        <time>2020-10-05T09:48:35Z</time>
      </trkpt>
      <trkpt lat="44.3362" lon="6.41092">
        <ele>1523.515</ele>
        <time>2020-10-05T09:48:40Z</time>
      </trkpt>
      <trkpt lat="44.33616" lon="6.41096">
        <ele>1525.637</ele>
        <time>2020-10-05T09:48:45Z</time>
      </trkpt>
      <trkpt lat="44.3361" lon="6.411">
        <ele>1525.16</ele>
        <time>2020-10-05T09:48:51Z</time>
      </trkpt>
      <trkpt lat="44.33609" lon="6.41105">
        <ele>1525.308</ele>
        <time>2020-10-05T09:48:57Z</time>
      </trkpt>
      <trkpt lat="44.33606" lon="6.4111">
        <ele>1524.213</ele>
        <time>2020-10-05T09:49:03Z</time>
      </trkpt>
      <trkpt lat="44.33601" lon="6.41112">
        <ele>1527.265</ele>
        <time>2020-10-05T09:49:09Z</time>
      </trkpt>
      <trkpt lat="44.33596" lon="6.41116">
        <ele>1524.722</ele>
        <time>2020-10-05T09:49:15Z</time>
      </trkpt>
      <trkpt lat="44.33594" lon="6.41122">
        <ele>1527.113</ele>
        <time>2020-10-05T09:49:21Z</time>
      </trkpt>
      <trkpt lat="44.33592" lon="6.41128">
        <ele>1530.917</ele>
        <time>2020-10-05T09:49:27Z</time>
      </trkpt>
      <trkpt lat="44.33591" lon="6.41131">
        <ele>1533.349</ele>
        <time>2020-10-05T09:49:33Z</time>
      </trkpt>
      <trkpt lat="44.33591" lon="6.41133">
        <ele>1535.106</ele>
        <time>2020-10-05T09:49:38Z</time>
      </trkpt>
      <trkpt lat="44.3359" lon="6.41137">
        <ele>1532.874</ele>
        <time>2020-10-05T09:49:44Z</time>
      </trkpt>
      <trkpt lat="44.33588" lon="6.41142">
        <ele>1533.805</ele>
        <time>2020-10-05T09:49:49Z</time>
      </trkpt>
      <trkpt lat="44.33586" lon="6.41148">
        <ele>1535.678</ele>
        <time>2020-10-05T09:49:54Z</time>
      </trkpt>
      <trkpt lat="44.33583" lon="6.41154">
        <ele>1537.093</ele>
        <time>2020-10-05T09:50:00Z</time>
      </trkpt>
      <trkpt lat="44.33582" lon="6.41158">
        <ele>1536.421</ele>
        <time>2020-10-05T09:50:05Z</time>
      </trkpt>
      <trkpt lat="44.33581" lon="6.41163">
        <ele>1534.584</ele>
        <time>2020-10-05T09:50:11Z</time>
      </trkpt>
      <trkpt lat="44.33581" lon="6.41163">
        <ele>1533.172</ele>
        <time>2020-10-05T09:50:17Z</time>
      </trkpt>
      <trkpt lat="44.33581" lon="6.41163">
        <ele>1533.11</ele>
        <time>2020-10-05T09:50:22Z</time>
      </trkpt>
      <trkpt lat="44.33581" lon="6.41164">
        <ele>1532.677</ele>
        <time>2020-10-05T09:50:27Z</time>
      </trkpt>
      <trkpt lat="44.33582" lon="6.41165">
        <ele>1532.237</ele>
        <time>2020-10-05T09:50:33Z</time>
      </trkpt>
      <trkpt lat="44.33586" lon="6.41157">
        <ele>1533.542</ele>
        <time>2020-10-05T09:50:39Z</time>
      </trkpt>
      <trkpt lat="44.33588" lon="6.4115">
        <ele>1533.249</ele>
        <time>2020-10-05T09:50:44Z</time>
      </trkpt>
      <trkpt lat="44.33586" lon="6.41143">
        <ele>1531.221</ele>
        <time>2020-10-05T09:50:50Z</time>
      </trkpt>
      <trkpt lat="44.33586" lon="6.41144">
        <ele>1531.175</ele>
        <time>2020-10-05T09:50:56Z</time>
      </trkpt>
      <trkpt lat="44.33583" lon="6.41151">
        <ele>1531.226</ele>
        <time>2020-10-05T09:51:02Z</time>
      </trkpt>
      <trkpt lat="44.33577" lon="6.41159">
        <ele>1535.965</ele>
        <time>2020-10-05T09:51:08Z</time>
      </trkpt>
      <trkpt lat="44.33576" lon="6.41166">
        <ele>1534.043</ele>
        <time>2020-10-05T09:51:14Z</time>
      </trkpt>
      <trkpt lat="44.33577" lon="6.41177">
        <ele>1531.591</ele>
        <time>2020-10-05T09:51:20Z</time>
      </trkpt>
      <trkpt lat="44.33575" lon="6.41189">
        <ele>1532.492</ele>
        <time>2020-10-05T09:51:26Z</time>
      </trkpt>
      <trkpt lat="44.33576" lon="6.412">
        <ele>1534.803</ele>
        <time>2020-10-05T09:51:31Z</time>
      </trkpt>
      <trkpt lat="44.33577" lon="6.41211">
        <ele>1534.182</ele>
        <time>2020-10-05T09:51:37Z</time>
      </trkpt>
      <trkpt lat="44.33578" lon="6.41218">
        <ele>1534.745</ele>
        <time>2020-10-05T09:51:43Z</time>
      </trkpt>
      <trkpt lat="44.3358" lon="6.4123">
        <ele>1532.056</ele>
        <time>2020-10-05T09:51:49Z</time>
      </trkpt>
      <trkpt lat="44.33581" lon="6.41241">
        <ele>1535.806</ele>
        <time>2020-10-05T09:51:55Z</time>
      </trkpt>
      <trkpt lat="44.3358" lon="6.41246">
        <ele>1533.703</ele>
        <time>2020-10-05T09:52:00Z</time>
      </trkpt>
      <trkpt lat="44.33578" lon="6.41256">
        <ele>1535.248</ele>
        <time>2020-10-05T09:52:06Z</time>
      </trkpt>
      <trkpt lat="44.33579" lon="6.41262">
        <ele>1538.906</ele>
        <time>2020-10-05T09:52:11Z</time>
      </trkpt>
      <trkpt lat="44.33582" lon="6.41272">
        <ele>1538.884</ele>
        <time>2020-10-05T09:52:17Z</time>
      </trkpt>
      <trkpt lat="44.33582" lon="6.4128">
        <ele>1538.346</ele>
        <time>2020-10-05T09:52:22Z</time>
      </trkpt>
      <trkpt lat="44.33582" lon="6.41288">
        <ele>1537.163</ele>
        <time>2020-10-05T09:52:27Z</time>
      </trkpt>
      <trkpt lat="44.33582" lon="6.41296">
        <ele>1538.077</ele>
        <time>2020-10-05T09:52:33Z</time>
      </trkpt>
      <trkpt lat="44.33582" lon="6.41305">
        <ele>1534.165</ele>
        <time>2020-10-05T09:52:39Z</time>
      </trkpt>
      <trkpt lat="44.33581" lon="6.41311">
        <ele>1536.327</ele>
        <time>2020-10-05T09:52:44Z</time>
      </trkpt>
      <trkpt lat="44.3358" lon="6.41317">
        <ele>1539.09</ele>
        <time>2020-10-05T09:52:49Z</time>
      </trkpt>
      <trkpt lat="44.33581" lon="6.41323">
        <ele>1542.031</ele>
        <time>2020-10-05T09:52:55Z</time>
      </trkpt>
      <trkpt lat="44.3358" lon="6.41332">
        <ele>1542.076</ele>
        <time>2020-10-05T09:53:01Z</time>
      </trkpt>
      <trkpt lat="44.33581" lon="6.41341">
        <ele>1543.472</ele>
        <time>2020-10-05T09:53:06Z</time>
      </trkpt>
      <trkpt lat="44.33581" lon="6.41354">
        <ele>1544.262</ele>
        <time>2020-10-05T09:53:12Z</time>
      </trkpt>
      <trkpt lat="44.33579" lon="6.41361">
        <ele>1545.315</ele>
        <time>2020-10-05T09:53:17Z</time>
      </trkpt>
      <trkpt lat="44.33575" lon="6.41374">
        <ele>1546.838</ele>
        <time>2020-10-05T09:53:23Z</time>
      </trkpt>
      <trkpt lat="44.33575" lon="6.41376">
        <ele>1542.152</ele>
        <time>2020-10-05T09:53:28Z</time>
      </trkpt>
      <trkpt lat="44.33572" lon="6.41387">
        <ele>1543.126</ele>
        <time>2020-10-05T09:53:34Z</time>
      </trkpt>
      <trkpt lat="44.33569" lon="6.41398">
        <ele>1542.623</ele>
        <time>2020-10-05T09:53:40Z</time>
      </trkpt>
      <trkpt lat="44.33567" lon="6.4141">
        <ele>1544.635</ele>
        <time>2020-10-05T09:53:46Z</time>
      </trkpt>
      <trkpt lat="44.33567" lon="6.4142">
        <ele>1545.195</ele>
        <time>2020-10-05T09:53:51Z</time>
      </trkpt>
      <trkpt lat="44.33566" lon="6.41429">
        <ele>1543.79</ele>
        <time>2020-10-05T09:53:57Z</time>
      </trkpt>
      <trkpt lat="44.33565" lon="6.41435">
        <ele>1545.492</ele>
        <time>2020-10-05T09:54:03Z</time>
      </trkpt>
      <trkpt lat="44.3357" lon="6.41445">
        <ele>1547.801</ele>
        <time>2020-10-05T09:54:09Z</time>
      </trkpt>
      <trkpt lat="44.33572" lon="6.41453">
        <ele>1546.559</ele>
        <time>2020-10-05T09:54:15Z</time>
      </trkpt>
      <trkpt lat="44.33573" lon="6.41459">
        <ele>1550.457</ele>
        <time>2020-10-05T09:54:20Z</time>
      </trkpt>
      <trkpt lat="44.33571" lon="6.4147">
        <ele>1554.881</ele>
        <time>2020-10-05T09:54:26Z</time>
      </trkpt>
      <trkpt lat="44.33568" lon="6.41481">
        <ele>1554.138</ele>
        <time>2020-10-05T09:54:31Z</time>
      </trkpt>
      <trkpt lat="44.33567" lon="6.41492">
        <ele>1554.45</ele>
        <time>2020-10-05T09:54:37Z</time>
      </trkpt>
      <trkpt lat="44.33567" lon="6.41497">
        <ele>1555.831</ele>
        <time>2020-10-05T09:54:42Z</time>
      </trkpt>
      <trkpt lat="44.33567" lon="6.41505">
        <ele>1554.509</ele>
        <time>2020-10-05T09:54:48Z</time>
      </trkpt>
      <trkpt lat="44.33568" lon="6.41514">
        <ele>1555.121</ele>
        <time>2020-10-05T09:54:54Z</time>
      </trkpt>
      <trkpt lat="44.33571" lon="6.41519">
        <ele>1558.578</ele>
        <time>2020-10-05T09:54:59Z</time>
      </trkpt>
      <trkpt lat="44.33572" lon="6.41524">
        <ele>1561.604</ele>
        <time>2020-10-05T09:55:05Z</time>
      </trkpt>
      <trkpt lat="44.33573" lon="6.4153">
        <ele>1562.539</ele>
        <time>2020-10-05T09:55:11Z</time>
      </trkpt>
      <trkpt lat="44.33574" lon="6.41535">
        <ele>1562.836</ele>
        <time>2020-10-05T09:55:17Z</time>
      </trkpt>
      <trkpt lat="44.33573" lon="6.41542">
        <ele>1563.656</ele>
        <time>2020-10-05T09:55:22Z</time>
      </trkpt>
      <trkpt lat="44.33572" lon="6.4155">
        <ele>1563.692</ele>
        <time>2020-10-05T09:55:27Z</time>
      </trkpt>
      <trkpt lat="44.33571" lon="6.41557">
        <ele>1564.168</ele>
        <time>2020-10-05T09:55:33Z</time>
      </trkpt>
      <trkpt lat="44.33569" lon="6.41565">
        <ele>1566.279</ele>
        <time>2020-10-05T09:55:39Z</time>
      </trkpt>
      <trkpt lat="44.33567" lon="6.41571">
        <ele>1568.491</ele>
        <time>2020-10-05T09:55:45Z</time>
      </trkpt>
      <trkpt lat="44.33564" lon="6.41574">
        <ele>1570.14</ele>
        <time>2020-10-05T09:55:51Z</time>
      </trkpt>
      <trkpt lat="44.33561" lon="6.41579">
        <ele>1570.643</ele>
        <time>2020-10-05T09:55:57Z</time>
      </trkpt>
      <trkpt lat="44.33562" lon="6.41585">
        <ele>1574.764</ele>
        <time>2020-10-05T09:56:02Z</time>
      </trkpt>
      <trkpt lat="44.33561" lon="6.41588">
        <ele>1574.508</ele>
        <time>2020-10-05T09:56:07Z</time>
      </trkpt>
      <trkpt lat="44.33562" lon="6.41593">
        <ele>1578.955</ele>
        <time>2020-10-05T09:56:13Z</time>
      </trkpt>
      <trkpt lat="44.33561" lon="6.41596">
        <ele>1581.193</ele>
        <time>2020-10-05T09:56:19Z</time>
      </trkpt>
      <trkpt lat="44.3356" lon="6.41603">
        <ele>1582.143</ele>
        <time>2020-10-05T09:56:25Z</time>
      </trkpt>
      <trkpt lat="44.33564" lon="6.41611">
        <ele>1579.662</ele>
        <time>2020-10-05T09:56:30Z</time>
      </trkpt>
      <trkpt lat="44.33565" lon="6.41615">
        <ele>1579.895</ele>
        <time>2020-10-05T09:56:35Z</time>
      </trkpt>
      <trkpt lat="44.33567" lon="6.41622">
        <ele>1578.392</ele>
        <time>2020-10-05T09:56:41Z</time>
      </trkpt>
      <trkpt lat="44.33567" lon="6.41626">
        <ele>1579.423</ele>
        <time>2020-10-05T09:56:46Z</time>
      </trkpt>
      <trkpt lat="44.3357" lon="6.41632">
        <ele>1581.57</ele>
        <time>2020-10-05T09:56:52Z</time>
      </trkpt>
      <trkpt lat="44.33573" lon="6.41635">
        <ele>1580.427</ele>
        <time>2020-10-05T09:56:57Z</time>
      </trkpt>
      <trkpt lat="44.33574" lon="6.41637">
        <ele>1581.367</ele>
        <time>2020-10-05T09:57:03Z</time>
      </trkpt>
      <trkpt lat="44.33575" lon="6.41637">
        <ele>1583.71</ele>
        <time>2020-10-05T09:57:08Z</time>
      </trkpt>
      <trkpt lat="44.33575" lon="6.4164">
        <ele>1582.966</ele>
        <time>2020-10-05T09:57:14Z</time>
      </trkpt>
      <trkpt lat="44.33576" lon="6.41641">
        <ele>1584.89</ele>
        <time>2020-10-05T09:57:20Z</time>
      </trkpt>
      <trkpt lat="44.3358" lon="6.41644">
        <ele>1585.882</ele>
        <time>2020-10-05T09:57:26Z</time>
      </trkpt>
      <trkpt lat="44.33586" lon="6.41645">
        <ele>1585.625</ele>
        <time>2020-10-05T09:57:31Z</time>
      </trkpt>
      <trkpt lat="44.3359" lon="6.41651">
        <ele>1583.841</ele>
        <time>2020-10-05T09:57:37Z</time>
      </trkpt>
      <trkpt lat="44.33595" lon="6.41656">
        <ele>1584.747</ele>
        <time>2020-10-05T09:57:42Z</time>
      </trkpt>
      <trkpt lat="44.33598" lon="6.41664">
        <ele>1585.204</ele>
        <time>2020-10-05T09:57:47Z</time>
      </trkpt>
      <trkpt lat="44.33597" lon="6.41673">
        <ele>1583.081</ele>
        <time>2020-10-05T09:57:53Z</time>
      </trkpt>
      <trkpt lat="44.33594" lon="6.41682">
        <ele>1584.171</ele>
        <time>2020-10-05T09:57:58Z</time>
      </trkpt>
      <trkpt lat="44.33593" lon="6.41684">
        <ele>1584.444</ele>
        <time>2020-10-05T09:58:04Z</time>
      </trkpt>
      <trkpt lat="44.33593" lon="6.41684">
        <ele>1583.523</ele>
        <time>2020-10-05T09:58:10Z</time>
      </trkpt>
      <trkpt lat="44.33591" lon="6.4169">
        <ele>1582.488</ele>
        <time>2020-10-05T09:58:16Z</time>
      </trkpt>
      <trkpt lat="44.33587" lon="6.41699">
        <ele>1580.777</ele>
        <time>2020-10-05T09:58:22Z</time>
      </trkpt>
      <trkpt lat="44.33585" lon="6.41706">
        <ele>1582.38</ele>
        <time>2020-10-05T09:58:27Z</time>
      </trkpt>
      <trkpt lat="44.33582" lon="6.41713">
        <ele>1585.913</ele>
        <time>2020-10-05T09:58:32Z</time>
      </trkpt>
      <trkpt lat="44.33579" lon="6.41725">
        <ele>1591.912</ele>
        <time>2020-10-05T09:58:38Z</time>
      </trkpt>
      <trkpt lat="44.33577" lon="6.41733">
        <ele>1590.881</ele>
        <time>2020-10-05T09:58:44Z</time>
      </trkpt>
      <trkpt lat="44.33579" lon="6.41727">
        <ele>1591.996</ele>
        <time>2020-10-05T09:58:50Z</time>
      </trkpt>
      <trkpt lat="44.33579" lon="6.41728">
        <ele>1590.844</ele>
        <time>2020-10-05T09:58:56Z</time>
      </trkpt>
      <trkpt lat="44.33578" lon="6.41728">
        <ele>1590.526</ele>
        <time>2020-10-05T09:59:02Z</time>
      </trkpt>
      <trkpt lat="44.33575" lon="6.41733">
        <ele>1589.437</ele>
        <time>2020-10-05T09:59:08Z</time>
      </trkpt>
      <trkpt lat="44.33572" lon="6.41745">
        <ele>1588.881</ele>
        <time>2020-10-05T09:59:14Z</time>
      </trkpt>
      <trkpt lat="44.33577" lon="6.41751">
        <ele>1591.363</ele>
        <time>2020-10-05T09:59:20Z</time>
      </trkpt>
      <trkpt lat="44.3358" lon="6.41756">
        <ele>1592.453</ele>
        <time>2020-10-05T09:59:25Z</time>
      </trkpt>
      <trkpt lat="44.33585" lon="6.41756">
        <ele>1596.915</ele>
        <time>2020-10-05T09:59:30Z</time>
      </trkpt>
      <trkpt lat="44.33589" lon="6.41757">
        <ele>1600.261</ele>
        <time>2020-10-05T09:59:36Z</time>
      </trkpt>
      <trkpt lat="44.33595" lon="6.41766">
        <ele>1597.543</ele>
        <time>2020-10-05T09:59:42Z</time>
      </trkpt>
      <trkpt lat="44.33601" lon="6.41775">
        <ele>1595.852</ele>
        <time>2020-10-05T09:59:48Z</time>
      </trkpt>
      <trkpt lat="44.33603" lon="6.41781">
        <ele>1597.733</ele>
        <time>2020-10-05T09:59:53Z</time>
      </trkpt>
      <trkpt lat="44.33605" lon="6.41792">
        <ele>1594.55</ele>
        <time>2020-10-05T09:59:59Z</time>
      </trkpt>
      <trkpt lat="44.33607" lon="6.418">
        <ele>1596.125</ele>
        <time>2020-10-05T10:00:05Z</time>
      </trkpt>
      <trkpt lat="44.33611" lon="6.41807">
        <ele>1596.928</ele>
        <time>2020-10-05T10:00:11Z</time>
      </trkpt>
      <trkpt lat="44.33614" lon="6.41813">
        <ele>1596.953</ele>
        <time>2020-10-05T10:00:17Z</time>
      </trkpt>
      <trkpt lat="44.33615" lon="6.4182">
        <ele>1595.713</ele>
        <time>2020-10-05T10:00:23Z</time>
      </trkpt>
      <trkpt lat="44.33619" lon="6.4183">
        <ele>1600.171</ele>
        <time>2020-10-05T10:00:29Z</time>
      </trkpt>
      <trkpt lat="44.33623" lon="6.41837">
        <ele>1602.377</ele>
        <time>2020-10-05T10:00:34Z</time>
      </trkpt>
      <trkpt lat="44.33624" lon="6.41845">
        <ele>1602.107</ele>
        <time>2020-10-05T10:00:40Z</time>
      </trkpt>
      <trkpt lat="44.33618" lon="6.41858">
        <ele>1604.541</ele>
        <time>2020-10-05T10:00:46Z</time>
      </trkpt>
      <trkpt lat="44.33616" lon="6.41865">
        <ele>1603.98</ele>
        <time>2020-10-05T10:00:51Z</time>
      </trkpt>
      <trkpt lat="44.33615" lon="6.41876">
        <ele>1604.167</ele>
        <time>2020-10-05T10:00:57Z</time>
      </trkpt>
      <trkpt lat="44.33615" lon="6.41888">
        <ele>1602.84</ele>
        <time>2020-10-05T10:01:03Z</time>
      </trkpt>
      <trkpt lat="44.33614" lon="6.41894">
        <ele>1602.779</ele>
        <time>2020-10-05T10:01:08Z</time>
      </trkpt>
      <trkpt lat="44.3361" lon="6.419">
        <ele>1603.333</ele>
        <time>2020-10-05T10:01:13Z</time>
      </trkpt>
      <trkpt lat="44.33606" lon="6.41909">
        <ele>1604.565</ele>
        <time>2020-10-05T10:01:19Z</time>
      </trkpt>
      <trkpt lat="44.33602" lon="6.41915">
        <ele>1603.277</ele>
        <time>2020-10-05T10:01:24Z</time>
      </trkpt>
      <trkpt lat="44.336" lon="6.4192">
        <ele>1607.445</ele>
        <time>2020-10-05T10:01:29Z</time>
      </trkpt>
      <trkpt lat="44.33597" lon="6.41928">
        <ele>1608.294</ele>
        <time>2020-10-05T10:01:35Z</time>
      </trkpt>
      <trkpt lat="44.33592" lon="6.41938">
        <ele>1609.923</ele>
        <time>2020-10-05T10:01:41Z</time>
      </trkpt>
      <trkpt lat="44.33591" lon="6.41941">
        <ele>1613.709</ele>
        <time>2020-10-05T10:01:47Z</time>
      </trkpt>
      <trkpt lat="44.33586" lon="6.41948">
        <ele>1618.193</ele>
        <time>2020-10-05T10:01:53Z</time>
      </trkpt>
      <trkpt lat="44.33588" lon="6.41952">
        <ele>1617.57</ele>
        <time>2020-10-05T10:01:58Z</time>
      </trkpt>
      <trkpt lat="44.33588" lon="6.41952">
        <ele>1620.259</ele>
        <time>2020-10-05T10:02:04Z</time>
      </trkpt>
      <trkpt lat="44.33588" lon="6.41959">
        <ele>1621.536</ele>
        <time>2020-10-05T10:02:10Z</time>
      </trkpt>
      <trkpt lat="44.33586" lon="6.41961">
        <ele>1619.192</ele>
        <time>2020-10-05T10:02:16Z</time>
      </trkpt>
      <trkpt lat="44.33586" lon="6.41962">
        <ele>1618.774</ele>
        <time>2020-10-05T10:02:21Z</time>
      </trkpt>
      <trkpt lat="44.33587" lon="6.41966">
        <ele>1621.372</ele>
        <time>2020-10-05T10:02:27Z</time>
      </trkpt>
      <trkpt lat="44.3359" lon="6.41965">
        <ele>1620.82</ele>
        <time>2020-10-05T10:02:33Z</time>
      </trkpt>
      <trkpt lat="44.33588" lon="6.41965">
        <ele>1618.914</ele>
        <time>2020-10-05T10:02:38Z</time>
      </trkpt>
      <trkpt lat="44.33587" lon="6.41969">
        <ele>1619.321</ele>
        <time>2020-10-05T10:02:44Z</time>
      </trkpt>
      <trkpt lat="44.33585" lon="6.4197">
        <ele>1620.898</ele>
        <time>2020-10-05T10:02:49Z</time>
      </trkpt>
      <trkpt lat="44.33583" lon="6.41973">
        <ele>1622.204</ele>
        <time>2020-10-05T10:02:55Z</time>
      </trkpt>
      <trkpt lat="44.33583" lon="6.41977">
        <ele>1624.459</ele>
        <time>2020-10-05T10:03:01Z</time>
      </trkpt>
      <trkpt lat="44.3358" lon="6.41978">
        <ele>1625.882</ele>
        <time>2020-10-05T10:03:07Z</time>
      </trkpt>
      <trkpt lat="44.33578" lon="6.41981">
        <ele>1625.171</ele>
        <time>2020-10-05T10:03:12Z</time>
      </trkpt>
      <trkpt lat="44.33577" lon="6.41986">
        <ele>1625.561</ele>
        <time>2020-10-05T10:03:17Z</time>
      </trkpt>
      <trkpt lat="44.33576" lon="6.41993">
        <ele>1623.643</ele>
        <time>2020-10-05T10:03:23Z</time>
      </trkpt>
      <trkpt lat="44.33574" lon="6.42">
        <ele>1625.271</ele>
        <time>2020-10-05T10:03:28Z</time>
      </trkpt>
      <trkpt lat="44.33576" lon="6.42007">
        <ele>1627.509</ele>
        <time>2020-10-05T10:03:34Z</time>
      </trkpt>
      <trkpt lat="44.3358" lon="6.42012">
        <ele>1631.594</ele>
        <time>2020-10-05T10:03:39Z</time>
      </trkpt>
      <trkpt lat="44.3358" lon="6.42016">
        <ele>1633.935</ele>
        <time>2020-10-05T10:03:45Z</time>
      </trkpt>
      <trkpt lat="44.33581" lon="6.42017">
        <ele>1636.914</ele>
        <time>2020-10-05T10:03:50Z</time>
      </trkpt>
      <trkpt lat="44.33584" lon="6.42019">
        <ele>1638.3</ele>
        <time>2020-10-05T10:03:55Z</time>
      </trkpt>
      <trkpt lat="44.33588" lon="6.42024">
        <ele>1639.113</ele>
        <time>2020-10-05T10:04:01Z</time>
      </trkpt>
      <trkpt lat="44.33589" lon="6.42025">
        <ele>1640.908</ele>
        <time>2020-10-05T10:04:07Z</time>
      </trkpt>
      <trkpt lat="44.33589" lon="6.42031">
        <ele>1637.403</ele>
        <time>2020-10-05T10:04:13Z</time>
      </trkpt>
      <trkpt lat="44.3359" lon="6.42036">
        <ele>1637.227</ele>
        <time>2020-10-05T10:04:18Z</time>
      </trkpt>
      <trkpt lat="44.33592" lon="6.42038">
        <ele>1639.085</ele>
        <time>2020-10-05T10:04:24Z</time>
      </trkpt>
      <trkpt lat="44.33594" lon="6.42042">
        <ele>1638.87</ele>
        <time>2020-10-05T10:04:29Z</time>
      </trkpt>
      <trkpt lat="44.33597" lon="6.42044">
        <ele>1641.084</ele>
        <time>2020-10-05T10:04:35Z</time>
      </trkpt>
      <trkpt lat="44.33599" lon="6.42047">
        <ele>1640.207</ele>
        <time>2020-10-05T10:04:40Z</time>
      </trkpt>
      <trkpt lat="44.33601" lon="6.42053">
        <ele>1639.511</ele>
        <time>2020-10-05T10:04:46Z</time>
      </trkpt>
      <trkpt lat="44.33603" lon="6.42055">
        <ele>1641.434</ele>
        <time>2020-10-05T10:04:51Z</time>
      </trkpt>
      <trkpt lat="44.33605" lon="6.42057">
        <ele>1641.198</ele>
        <time>2020-10-05T10:04:56Z</time>
      </trkpt>
      <trkpt lat="44.33606" lon="6.42059">
        <ele>1639.361</ele>
        <time>2020-10-05T10:05:02Z</time>
      </trkpt>
      <trkpt lat="44.33607" lon="6.42062">
        <ele>1635.995</ele>
        <time>2020-10-05T10:05:07Z</time>
      </trkpt>
      <trkpt lat="44.33611" lon="6.42068">
        <ele>1639.611</ele>
        <time>2020-10-05T10:05:13Z</time>
      </trkpt>
      <trkpt lat="44.3361" lon="6.42071">
        <ele>1638.064</ele>
        <time>2020-10-05T10:05:18Z</time>
      </trkpt>
      <trkpt lat="44.33612" lon="6.42078">
        <ele>1641.458</ele>
        <time>2020-10-05T10:05:24Z</time>
      </trkpt>
      <trkpt lat="44.33612" lon="6.42086">
        <ele>1639.833</ele>
        <time>2020-10-05T10:05:30Z</time>
      </trkpt>
      <trkpt lat="44.33611" lon="6.42091">
        <ele>1639.636</ele>
        <time>2020-10-05T10:05:35Z</time>
      </trkpt>
      <trkpt lat="44.3361" lon="6.42097">
        <ele>1642.714</ele>
        <time>2020-10-05T10:05:41Z</time>
      </trkpt>
      <trkpt lat="44.3361" lon="6.42103">
        <ele>1643.925</ele>
        <time>2020-10-05T10:05:47Z</time>
      </trkpt>
      <trkpt lat="44.33608" lon="6.42109">
        <ele>1644.19</ele>
        <time>2020-10-05T10:05:53Z</time>
      </trkpt>
      <trkpt lat="44.33609" lon="6.42112">
        <ele>1644.521</ele>
        <time>2020-10-05T10:05:58Z</time>
      </trkpt>
      <trkpt lat="44.3361" lon="6.42112">
        <ele>1644.574</ele>
        <time>2020-10-05T10:06:04Z</time>
      </trkpt>
      <trkpt lat="44.3361" lon="6.42114">
        <ele>1644.039</ele>
        <time>2020-10-05T10:06:10Z</time>
      </trkpt>
      <trkpt lat="44.33609" lon="6.42114">
        <ele>1644.675</ele>
        <time>2020-10-05T10:06:16Z</time>
      </trkpt>
      <trkpt lat="44.33609" lon="6.42114">
        <ele>1645.315</ele>
        <time>2020-10-05T10:06:21Z</time>
      </trkpt>
      <trkpt lat="44.33608" lon="6.42117">
        <ele>1647.292</ele>
        <time>2020-10-05T10:06:27Z</time>
      </trkpt>
      <trkpt lat="44.33605" lon="6.42125">
        <ele>1646.712</ele>
        <time>2020-10-05T10:06:33Z</time>
      </trkpt>
      <trkpt lat="44.33607" lon="6.42131">
        <ele>1648.61</ele>
        <time>2020-10-05T10:06:39Z</time>
      </trkpt>
      <trkpt lat="44.3361" lon="6.42138">
        <ele>1650.516</ele>
        <time>2020-10-05T10:06:44Z</time>
      </trkpt>
      <trkpt lat="44.33613" lon="6.42145">
        <ele>1656.195</ele>
        <time>2020-10-05T10:06:50Z</time>
      </trkpt>
      <trkpt lat="44.33617" lon="6.42149">
        <ele>1658.853</ele>
        <time>2020-10-05T10:06:55Z</time>
      </trkpt>
      <trkpt lat="44.33619" lon="6.42155">
        <ele>1660.529</ele>
        <time>2020-10-05T10:07:00Z</time>
      </trkpt>
      <trkpt lat="44.33621" lon="6.4216">
        <ele>1660.903</ele>
        <time>2020-10-05T10:07:05Z</time>
      </trkpt>
      <trkpt lat="44.33623" lon="6.42167">
        <ele>1662.733</ele>
        <time>2020-10-05T10:07:11Z</time>
      </trkpt>
      <trkpt lat="44.33626" lon="6.4217">
        <ele>1664.799</ele>
        <time>2020-10-05T10:07:17Z</time>
      </trkpt>
      <trkpt lat="44.33628" lon="6.42174">
        <ele>1666.097</ele>
        <time>2020-10-05T10:07:23Z</time>
      </trkpt>
      <trkpt lat="44.33631" lon="6.42176">
        <ele>1666.579</ele>
        <time>2020-10-05T10:07:28Z</time>
      </trkpt>
      <trkpt lat="44.33633" lon="6.4218">
        <ele>1663.521</ele>
        <time>2020-10-05T10:07:34Z</time>
      </trkpt>
      <trkpt lat="44.33637" lon="6.42185">
        <ele>1664.509</ele>
        <time>2020-10-05T10:07:40Z</time>
      </trkpt>
      <trkpt lat="44.33639" lon="6.42189">
        <ele>1663.165</ele>
        <time>2020-10-05T10:07:45Z</time>
      </trkpt>
      <trkpt lat="44.33639" lon="6.42188">
        <ele>1666.479</ele>
        <time>2020-10-05T10:07:50Z</time>
      </trkpt>
      <trkpt lat="44.33639" lon="6.42185">
        <ele>1669.596</ele>
        <time>2020-10-05T10:07:56Z</time>
      </trkpt>
      <trkpt lat="44.33639" lon="6.42186">
        <ele>1668.316</ele>
        <time>2020-10-05T10:08:02Z</time>
      </trkpt>
      <trkpt lat="44.33639" lon="6.42187">
        <ele>1668.331</ele>
        <time>2020-10-05T10:08:07Z</time>
      </trkpt>
      <trkpt lat="44.33642" lon="6.42193">
        <ele>1663.767</ele>
        <time>2020-10-05T10:08:13Z</time>
      </trkpt>
      <trkpt lat="44.33645" lon="6.42198">
        <ele>1662.627</ele>
        <time>2020-10-05T10:08:18Z</time>
      </trkpt>
      <trkpt lat="44.33643" lon="6.42199">
        <ele>1663.607</ele>
        <time>2020-10-05T10:08:23Z</time>
      </trkpt>
      <trkpt lat="44.33643" lon="6.42198">
        <ele>1663.914</ele>
        <time>2020-10-05T10:08:30Z</time>
      </trkpt>
      <trkpt lat="44.33643" lon="6.42198">
        <ele>1663.88</ele>
        <time>2020-10-05T10:08:36Z</time>
      </trkpt>
      <trkpt lat="44.33643" lon="6.42198">
        <ele>1663.904</ele>
        <time>2020-10-05T10:08:41Z</time>
      </trkpt>
      <trkpt lat="44.33643" lon="6.42198">
        <ele>1663.91</ele>
        <time>2020-10-05T10:08:47Z</time>
      </trkpt>
      <trkpt lat="44.33643" lon="6.42199">
        <ele>1664.391</ele>
        <time>2020-10-05T10:08:52Z</time>
      </trkpt>
      <trkpt lat="44.33646" lon="6.42205">
        <ele>1665.929</ele>
        <time>2020-10-05T10:08:58Z</time>
      </trkpt>
      <trkpt lat="44.33646" lon="6.42209">
        <ele>1665.405</ele>
        <time>2020-10-05T10:09:03Z</time>
      </trkpt>
      <trkpt lat="44.33646" lon="6.4221">
        <ele>1665.933</ele>
        <time>2020-10-05T10:09:09Z</time>
      </trkpt>
      <trkpt lat="44.33646" lon="6.4221">
        <ele>1666.805</ele>
        <time>2020-10-05T10:09:15Z</time>
      </trkpt>
      <trkpt lat="44.33647" lon="6.42216">
        <ele>1667.215</ele>
        <time>2020-10-05T10:09:21Z</time>
      </trkpt>
      <trkpt lat="44.33647" lon="6.42221">
        <ele>1667.28</ele>
        <time>2020-10-05T10:09:27Z</time>
      </trkpt>
      <trkpt lat="44.33644" lon="6.4223">
        <ele>1667.84</ele>
        <time>2020-10-05T10:09:33Z</time>
      </trkpt>
      <trkpt lat="44.33643" lon="6.42235">
        <ele>1666.66</ele>
        <time>2020-10-05T10:09:38Z</time>
      </trkpt>
      <trkpt lat="44.33644" lon="6.42247">
        <ele>1668.335</ele>
        <time>2020-10-05T10:09:44Z</time>
      </trkpt>
      <trkpt lat="44.33641" lon="6.42254">
        <ele>1669.544</ele>
        <time>2020-10-05T10:09:49Z</time>
      </trkpt>
      <trkpt lat="44.33639" lon="6.42261">
        <ele>1671.882</ele>
        <time>2020-10-05T10:09:54Z</time>
      </trkpt>
      <trkpt lat="44.33638" lon="6.42268">
        <ele>1672.17</ele>
        <time>2020-10-05T10:10:00Z</time>
      </trkpt>
      <trkpt lat="44.33637" lon="6.42274">
        <ele>1671.446</ele>
        <time>2020-10-05T10:10:05Z</time>
      </trkpt>
      <trkpt lat="44.33637" lon="6.42283">
        <ele>1671.263</ele>
        <time>2020-10-05T10:10:11Z</time>
      </trkpt>
      <trkpt lat="44.33638" lon="6.42287">
        <ele>1674.987</ele>
        <time>2020-10-05T10:10:16Z</time>
      </trkpt>
      <trkpt lat="44.33637" lon="6.42289">
        <ele>1677.276</ele>
        <time>2020-10-05T10:10:21Z</time>
      </trkpt>
      <trkpt lat="44.33636" lon="6.42293">
        <ele>1678.843</ele>
        <time>2020-10-05T10:10:27Z</time>
      </trkpt>
      <trkpt lat="44.33634" lon="6.42296">
        <ele>1679.595</ele>
        <time>2020-10-05T10:10:32Z</time>
      </trkpt>
      <trkpt lat="44.33632" lon="6.423">
        <ele>1679.06</ele>
        <time>2020-10-05T10:10:38Z</time>
      </trkpt>
      <trkpt lat="44.33632" lon="6.423">
        <ele>1679.857</ele>
        <time>2020-10-05T10:10:44Z</time>
      </trkpt>
      <trkpt lat="44.33632" lon="6.42304">
        <ele>1682.705</ele>
        <time>2020-10-05T10:10:50Z</time>
      </trkpt>
      <trkpt lat="44.33631" lon="6.4231">
        <ele>1683.797</ele>
        <time>2020-10-05T10:10:55Z</time>
      </trkpt>
      <trkpt lat="44.3363" lon="6.42315">
        <ele>1684.194</ele>
        <time>2020-10-05T10:11:01Z</time>
      </trkpt>
      <trkpt lat="44.33629" lon="6.42316">
        <ele>1687.682</ele>
        <time>2020-10-05T10:11:06Z</time>
      </trkpt>
      <trkpt lat="44.33629" lon="6.42317">
        <ele>1690.004</ele>
        <time>2020-10-05T10:11:12Z</time>
      </trkpt>
      <trkpt lat="44.33629" lon="6.42322">
        <ele>1688.089</ele>
        <time>2020-10-05T10:11:17Z</time>
      </trkpt>
      <trkpt lat="44.33628" lon="6.42325">
        <ele>1686.922</ele>
        <time>2020-10-05T10:11:23Z</time>
      </trkpt>
      <trkpt lat="44.33626" lon="6.42326">
        <ele>1689.62</ele>
        <time>2020-10-05T10:11:28Z</time>
      </trkpt>
      <trkpt lat="44.33628" lon="6.42326">
        <ele>1690.607</ele>
        <time>2020-10-05T10:11:33Z</time>
      </trkpt>
      <trkpt lat="44.33629" lon="6.42329">
        <ele>1691.41</ele>
        <time>2020-10-05T10:11:39Z</time>
      </trkpt>
      <trkpt lat="44.33627" lon="6.42334">
        <ele>1693.703</ele>
        <time>2020-10-05T10:11:45Z</time>
      </trkpt>
      <trkpt lat="44.33627" lon="6.42341">
        <ele>1691.125</ele>
        <time>2020-10-05T10:11:51Z</time>
      </trkpt>
      <trkpt lat="44.33627" lon="6.42344">
        <ele>1691.299</ele>
        <time>2020-10-05T10:11:57Z</time>
      </trkpt>
      <trkpt lat="44.33628" lon="6.42354">
        <ele>1691.028</ele>
        <time>2020-10-05T10:12:03Z</time>
      </trkpt>
      <trkpt lat="44.33627" lon="6.42361">
        <ele>1691.278</ele>
        <time>2020-10-05T10:12:08Z</time>
      </trkpt>
      <trkpt lat="44.33623" lon="6.42371">
        <ele>1690.451</ele>
        <time>2020-10-05T10:12:14Z</time>
      </trkpt>
      <trkpt lat="44.33628" lon="6.42376">
        <ele>1690.155</ele>
        <time>2020-10-05T10:12:19Z</time>
      </trkpt>
      <trkpt lat="44.33628" lon="6.42381">
        <ele>1692.012</ele>
        <time>2020-10-05T10:12:24Z</time>
      </trkpt>
      <trkpt lat="44.33628" lon="6.42393">
        <ele>1694.3</ele>
        <time>2020-10-05T10:12:30Z</time>
      </trkpt>
      <trkpt lat="44.33627" lon="6.42404">
        <ele>1692.663</ele>
        <time>2020-10-05T10:12:36Z</time>
      </trkpt>
      <trkpt lat="44.33628" lon="6.42414">
        <ele>1693.658</ele>
        <time>2020-10-05T10:12:42Z</time>
      </trkpt>
      <trkpt lat="44.33627" lon="6.42425">
        <ele>1689.543</ele>
        <time>2020-10-05T10:12:48Z</time>
      </trkpt>
      <trkpt lat="44.33626" lon="6.42437">
        <ele>1688.136</ele>
        <time>2020-10-05T10:12:54Z</time>
      </trkpt>
      <trkpt lat="44.33629" lon="6.42447">
        <ele>1689.531</ele>
        <time>2020-10-05T10:12:59Z</time>
      </trkpt>
      <trkpt lat="44.33627" lon="6.42458">
        <ele>1690.346</ele>
        <time>2020-10-05T10:13:05Z</time>
      </trkpt>
      <trkpt lat="44.33629" lon="6.42467">
        <ele>1691.122</ele>
        <time>2020-10-05T10:13:11Z</time>
      </trkpt>
      <trkpt lat="44.33631" lon="6.42472">
        <ele>1692.255</ele>
        <time>2020-10-05T10:13:16Z</time>
      </trkpt>
      <trkpt lat="44.33635" lon="6.42481">
        <ele>1696.348</ele>
        <time>2020-10-05T10:13:22Z</time>
      </trkpt>
      <trkpt lat="44.33636" lon="6.4248">
        <ele>1697.568</ele>
        <time>2020-10-05T10:13:27Z</time>
      </trkpt>
      <trkpt lat="44.33635" lon="6.42487">
        <ele>1698.913</ele>
        <time>2020-10-05T10:13:33Z</time>
      </trkpt>
      <trkpt lat="44.33633" lon="6.42496">
        <ele>1701.035</ele>
        <time>2020-10-05T10:13:39Z</time>
      </trkpt>
      <trkpt lat="44.33633" lon="6.42499">
        <ele>1702.482</ele>
        <time>2020-10-05T10:13:45Z</time>
      </trkpt>
      <trkpt lat="44.33634" lon="6.42497">
        <ele>1705.001</ele>
        <time>2020-10-05T10:13:50Z</time>
      </trkpt>
      <trkpt lat="44.33636" lon="6.42504">
        <ele>1703.883</ele>
        <time>2020-10-05T10:13:56Z</time>
      </trkpt>
      <trkpt lat="44.33638" lon="6.42511">
        <ele>1705.742</ele>
        <time>2020-10-05T10:14:01Z</time>
      </trkpt>
      <trkpt lat="44.33641" lon="6.42518">
        <ele>1706.849</ele>
        <time>2020-10-05T10:14:07Z</time>
      </trkpt>
      <trkpt lat="44.33641" lon="6.42526">
        <ele>1709.877</ele>
        <time>2020-10-05T10:14:12Z</time>
      </trkpt>
      <trkpt lat="44.33643" lon="6.42531">
        <ele>1702.292</ele>
        <time>2020-10-05T10:14:18Z</time>
      </trkpt>
      <trkpt lat="44.33645" lon="6.42531">
        <ele>1702.73</ele>
        <time>2020-10-05T10:14:23Z</time>
      </trkpt>
      <trkpt lat="44.33646" lon="6.42539">
        <ele>1705.926</ele>
        <time>2020-10-05T10:14:29Z</time>
      </trkpt>
      <trkpt lat="44.33646" lon="6.42545">
        <ele>1706.79</ele>
        <time>2020-10-05T10:14:34Z</time>
      </trkpt>
      <trkpt lat="44.33647" lon="6.42551">
        <ele>1707.845</ele>
        <time>2020-10-05T10:14:39Z</time>
      </trkpt>
      <trkpt lat="44.33645" lon="6.42554">
        <ele>1708.392</ele>
        <time>2020-10-05T10:14:45Z</time>
      </trkpt>
      <trkpt lat="44.33645" lon="6.42564">
        <ele>1699.239</ele>
        <time>2020-10-05T10:14:51Z</time>
      </trkpt>
      <trkpt lat="44.33644" lon="6.42571">
        <ele>1702.176</ele>
        <time>2020-10-05T10:14:56Z</time>
      </trkpt>
      <trkpt lat="44.33646" lon="6.4258">
        <ele>1704.105</ele>
        <time>2020-10-05T10:15:02Z</time>
      </trkpt>
      <trkpt lat="44.33644" lon="6.42586">
        <ele>1703.987</ele>
        <time>2020-10-05T10:15:07Z</time>
      </trkpt>
      <trkpt lat="44.33645" lon="6.42587">
        <ele>1705.239</ele>
        <time>2020-10-05T10:15:12Z</time>
      </trkpt>
      <trkpt lat="44.33645" lon="6.4259">
        <ele>1704.585</ele>
        <time>2020-10-05T10:15:18Z</time>
      </trkpt>
      <trkpt lat="44.33644" lon="6.42593">
        <ele>1706.324</ele>
        <time>2020-10-05T10:15:23Z</time>
      </trkpt>
      <trkpt lat="44.33643" lon="6.42598">
        <ele>1708.947</ele>
        <time>2020-10-05T10:15:28Z</time>
      </trkpt>
      <trkpt lat="44.33644" lon="6.42598">
        <ele>1711.322</ele>
        <time>2020-10-05T10:15:33Z</time>
      </trkpt>
      <trkpt lat="44.33642" lon="6.42602">
        <ele>1715.314</ele>
        <time>2020-10-05T10:15:39Z</time>
      </trkpt>
      <trkpt lat="44.33642" lon="6.42608">
        <ele>1715.205</ele>
        <time>2020-10-05T10:15:44Z</time>
      </trkpt>
      <trkpt lat="44.33644" lon="6.42615">
        <ele>1717.289</ele>
        <time>2020-10-05T10:15:49Z</time>
      </trkpt>
      <trkpt lat="44.33643" lon="6.42622">
        <ele>1720.12</ele>
        <time>2020-10-05T10:15:55Z</time>
      </trkpt>
      <trkpt lat="44.33644" lon="6.42625">
        <ele>1720.415</ele>
        <time>2020-10-05T10:16:00Z</time>
      </trkpt>
      <trkpt lat="44.33644" lon="6.4263">
        <ele>1719.735</ele>
        <time>2020-10-05T10:16:05Z</time>
      </trkpt>
      <trkpt lat="44.33645" lon="6.42634">
        <ele>1718.154</ele>
        <time>2020-10-05T10:16:10Z</time>
      </trkpt>
      <trkpt lat="44.33637" lon="6.42636">
        <ele>1722.561</ele>
        <time>2020-10-05T10:16:16Z</time>
      </trkpt>
      <trkpt lat="44.33638" lon="6.42647">
        <ele>1721.934</ele>
        <time>2020-10-05T10:16:22Z</time>
      </trkpt>
      <trkpt lat="44.33638" lon="6.42657">
        <ele>1722.809</ele>
        <time>2020-10-05T10:16:28Z</time>
      </trkpt>
      <trkpt lat="44.33637" lon="6.42666">
        <ele>1721.818</ele>
        <time>2020-10-05T10:16:34Z</time>
      </trkpt>
      <trkpt lat="44.33634" lon="6.42673">
        <ele>1722.247</ele>
        <time>2020-10-05T10:16:40Z</time>
      </trkpt>
      <trkpt lat="44.33633" lon="6.4268">
        <ele>1726.422</ele>
        <time>2020-10-05T10:16:46Z</time>
      </trkpt>
      <trkpt lat="44.33635" lon="6.42692">
        <ele>1728.342</ele>
        <time>2020-10-05T10:16:52Z</time>
      </trkpt>
      <trkpt lat="44.33638" lon="6.42698">
        <ele>1730.654</ele>
        <time>2020-10-05T10:16:58Z</time>
      </trkpt>
      <trkpt lat="44.33639" lon="6.42703">
        <ele>1730.941</ele>
        <time>2020-10-05T10:17:03Z</time>
      </trkpt>
      <trkpt lat="44.33639" lon="6.4271">
        <ele>1726.874</ele>
        <time>2020-10-05T10:17:09Z</time>
      </trkpt>
      <trkpt lat="44.33639" lon="6.42717">
        <ele>1727.733</ele>
        <time>2020-10-05T10:17:14Z</time>
      </trkpt>
      <trkpt lat="44.33639" lon="6.42728">
        <ele>1722.98</ele>
        <time>2020-10-05T10:17:20Z</time>
      </trkpt>
      <trkpt lat="44.33637" lon="6.4274">
        <ele>1717.994</ele>
        <time>2020-10-05T10:17:26Z</time>
      </trkpt>
      <trkpt lat="44.33641" lon="6.42753">
        <ele>1718.287</ele>
        <time>2020-10-05T10:17:32Z</time>
      </trkpt>
      <trkpt lat="44.33646" lon="6.42757">
        <ele>1718.762</ele>
        <time>2020-10-05T10:17:38Z</time>
      </trkpt>
      <trkpt lat="44.33648" lon="6.42768">
        <ele>1716.75</ele>
        <time>2020-10-05T10:17:44Z</time>
      </trkpt>
      <trkpt lat="44.33653" lon="6.42775">
        <ele>1718.042</ele>
        <time>2020-10-05T10:17:50Z</time>
      </trkpt>
      <trkpt lat="44.33654" lon="6.42787">
        <ele>1718.65</ele>
        <time>2020-10-05T10:17:56Z</time>
      </trkpt>
      <trkpt lat="44.33656" lon="6.42794">
        <ele>1719.21</ele>
        <time>2020-10-05T10:18:01Z</time>
      </trkpt>
      <trkpt lat="44.33659" lon="6.42809">
        <ele>1718.531</ele>
        <time>2020-10-05T10:18:07Z</time>
      </trkpt>
      <trkpt lat="44.33662" lon="6.42813">
        <ele>1717.543</ele>
        <time>2020-10-05T10:18:12Z</time>
      </trkpt>
      <trkpt lat="44.33665" lon="6.42813">
        <ele>1718.596</ele>
        <time>2020-10-05T10:18:18Z</time>
      </trkpt>
      <trkpt lat="44.33667" lon="6.42822">
        <ele>1720.193</ele>
        <time>2020-10-05T10:18:24Z</time>
      </trkpt>
      <trkpt lat="44.3367" lon="6.42825">
        <ele>1720.233</ele>
        <time>2020-10-05T10:18:29Z</time>
      </trkpt>
      <trkpt lat="44.33673" lon="6.42832">
        <ele>1719.23</ele>
        <time>2020-10-05T10:18:35Z</time>
      </trkpt>
      <trkpt lat="44.33675" lon="6.42838">
        <ele>1719.182</ele>
        <time>2020-10-05T10:18:40Z</time>
      </trkpt>
      <trkpt lat="44.3368" lon="6.42845">
        <ele>1717.269</ele>
        <time>2020-10-05T10:18:47Z</time>
      </trkpt>
      <trkpt lat="44.33684" lon="6.42847">
        <ele>1715.62</ele>
        <time>2020-10-05T10:18:53Z</time>
      </trkpt>
      <trkpt lat="44.33687" lon="6.42851">
        <ele>1713.237</ele>
        <time>2020-10-05T10:18:59Z</time>
      </trkpt>
      <trkpt lat="44.3369" lon="6.42857">
        <ele>1713.081</ele>
        <time>2020-10-05T10:19:05Z</time>
      </trkpt>
      <trkpt lat="44.3369" lon="6.42856">
        <ele>1715.222</ele>
        <time>2020-10-05T10:19:10Z</time>
      </trkpt>
      <trkpt lat="44.3369" lon="6.42856">
        <ele>1715.033</ele>
        <time>2020-10-05T10:19:17Z</time>
      </trkpt>
      <trkpt lat="44.33691" lon="6.42856">
        <ele>1715.487</ele>
        <time>2020-10-05T10:19:22Z</time>
      </trkpt>
      <trkpt lat="44.33693" lon="6.42862">
        <ele>1717.254</ele>
        <time>2020-10-05T10:19:28Z</time>
      </trkpt>
      <trkpt lat="44.33696" lon="6.42869">
        <ele>1710.862</ele>
        <time>2020-10-05T10:19:33Z</time>
      </trkpt>
      <trkpt lat="44.33695" lon="6.42877">
        <ele>1710.008</ele>
        <time>2020-10-05T10:19:38Z</time>
      </trkpt>
      <trkpt lat="44.33694" lon="6.42878">
        <ele>1709.741</ele>
        <time>2020-10-05T10:19:44Z</time>
      </trkpt>
      <trkpt lat="44.33694" lon="6.42878">
        <ele>1708.907</ele>
        <time>2020-10-05T10:19:49Z</time>
      </trkpt>
      <trkpt lat="44.33694" lon="6.42878">
        <ele>1709.086</ele>
        <time>2020-10-05T10:19:54Z</time>
      </trkpt>
      <trkpt lat="44.33694" lon="6.42878">
        <ele>1709.089</ele>
        <time>2020-10-05T10:19:59Z</time>
      </trkpt>
      <trkpt lat="44.33694" lon="6.42878">
        <ele>1709.037</ele>
        <time>2020-10-05T10:20:04Z</time>
      </trkpt>
      <trkpt lat="44.33694" lon="6.42878">
        <ele>1709.023</ele>
        <time>2020-10-05T10:20:10Z</time>
      </trkpt>
      <trkpt lat="44.33694" lon="6.42878">
        <ele>1709.076</ele>
        <time>2020-10-05T10:20:16Z</time>
      </trkpt>
      <trkpt lat="44.33694" lon="6.42878">
        <ele>1709.156</ele>
        <time>2020-10-05T10:20:22Z</time>
      </trkpt>
    </trkseg>
  </trk>
</gpx>